createdAt,value
2023-08-17T00:06:34.971Z,2.20
2023-08-17T00:11:40.008Z,1.67
2023-08-17T00:16:43.894Z,2.30
2023-08-17T00:21:47.873Z,1.70
2023-08-17T00:26:52.789Z,1.83
2023-08-17T00:31:56.280Z,2.83
2023-08-17T00:36:59.899Z,1.57
2023-08-17T00:42:05.083Z,1.47
2023-08-17T00:47:08.490Z,1.40
2023-08-17T00:52:12.287Z,1.40
2023-08-17T00:57:17.218Z,1.50
2023-08-17T01:02:21.624Z,1.13
2023-08-17T01:07:25.377Z,1.37
2023-08-17T01:12:32.728Z,0.90
2023-08-17T01:17:40.720Z,1.07
2023-08-17T01:22:44.865Z,1.57
2023-08-17T01:27:49.705Z,1.23
2023-08-17T01:32:56.721Z,1.43
2023-08-17T01:38:02.144Z,2.07
2023-08-17T01:43:07.460Z,1.50
2023-08-17T01:48:10.928Z,1.57
2023-08-17T01:53:15.153Z,1.30
2023-08-17T01:58:20.087Z,1.27
2023-08-17T02:03:23.640Z,1.67
2023-08-17T02:08:27.288Z,1.47
2023-08-17T02:13:32.319Z,1.33
2023-08-17T02:18:40.129Z,1.63
2023-08-17T02:23:43.645Z,1.30
2023-08-17T02:28:48.332Z,1.47
2023-08-17T02:33:51.975Z,1.37
2023-08-17T02:38:55.520Z,1.60
2023-08-17T02:44:00.462Z,1.40
2023-08-17T02:49:04.562Z,1.30
2023-08-17T02:54:08.455Z,1.47
2023-08-17T02:59:13.152Z,1.30
2023-08-17T03:04:16.582Z,1.70
2023-08-17T03:09:19.920Z,1.60
2023-08-17T03:14:25.516Z,1.70
2023-08-17T03:19:29.021Z,1.30
2023-08-17T03:24:32.514Z,1.30
2023-08-17T03:29:37.475Z,2.00
2023-08-17T03:34:40.845Z,1.33
2023-08-17T03:39:44.535Z,1.57
2023-08-17T03:44:49.346Z,2.23
2023-08-17T03:49:54.155Z,1.60
2023-08-17T03:54:57.470Z,1.70
2023-08-17T04:00:02.388Z,1.50
2023-08-17T04:05:07.101Z,2.10
2023-08-17T04:10:11.163Z,1.60
2023-08-17T04:15:16.132Z,2.07
2023-08-17T04:20:20.516Z,1.50
2023-08-17T04:25:23.892Z,1.97
2023-08-17T04:30:30.190Z,1.80
2023-08-17T04:35:37.563Z,1.67
2023-08-17T04:40:41.016Z,2.07
2023-08-17T04:45:48.991Z,1.60
2023-08-17T04:50:53.736Z,2.00
2023-08-17T04:55:57.319Z,2.20
2023-08-17T05:01:02.806Z,2.33
2023-08-17T05:06:06.346Z,2.00
2023-08-17T05:11:11.464Z,2.40
2023-08-17T05:16:16.623Z,1.90
2023-08-17T05:21:20.134Z,2.27
2023-08-17T05:26:23.822Z,2.30
2023-08-17T05:31:28.820Z,2.23
2023-08-17T05:36:33.118Z,2.53
2023-08-17T05:41:36.468Z,2.40
2023-08-17T05:46:41.173Z,2.70
2023-08-17T05:51:44.752Z,2.57
2023-08-17T05:56:48.631Z,2.07
2023-08-17T06:01:53.393Z,2.27
2023-08-17T06:06:57.347Z,3.20
2023-08-17T06:12:00.639Z,2.50
2023-08-17T06:17:05.959Z,2.63
2023-08-17T06:22:09.435Z,2.33
2023-08-17T06:27:16.221Z,2.77
2023-08-17T06:32:21.041Z,2.33
2023-08-17T06:37:24.608Z,2.53
2023-08-17T06:42:28.221Z,2.60
2023-08-17T06:47:33.088Z,3.13
2023-08-17T06:52:36.411Z,3.27
2023-08-17T06:57:40.063Z,3.30
2023-08-17T07:02:53.662Z,3.40
2023-08-17T07:08:00.349Z,2.60
2023-08-17T07:13:04.467Z,3.17
2023-08-17T07:18:09.546Z,3.77
2023-08-17T07:23:12.859Z,4.50
2023-08-17T07:28:17.026Z,4.10
2023-08-17T07:33:21.761Z,4.10
2023-08-17T07:38:25.158Z,4.90
2023-08-17T07:43:28.416Z,6.63
2023-08-17T07:48:34.955Z,7.40
2023-08-17T07:53:38.844Z,6.77
2023-08-17T07:58:42.245Z,8.53
2023-08-17T08:03:47.353Z,8.30
2023-08-17T08:08:50.937Z,9.80
2023-08-17T08:13:54.221Z,9.67
2023-08-17T08:18:59.189Z,10.27
2023-08-17T08:24:02.657Z,10.50
2023-08-17T08:29:06.381Z,9.90
2023-08-17T08:34:11.009Z,9.50
2023-08-17T08:39:14.789Z,10.30
2023-08-17T08:44:18.393Z,10.50
2023-08-17T08:49:25.623Z,11.07
2023-08-17T08:54:29.682Z,10.73
2023-08-17T08:59:33.720Z,10.97
2023-08-17T09:04:38.533Z,50.67
2023-08-17T09:09:42.233Z,9.60
2023-08-17T09:14:45.668Z,9.87
2023-08-17T09:19:51.565Z,8.97
2023-08-17T09:24:54.721Z,9.20
2023-08-17T09:30:04.680Z,9.40
2023-08-17T09:35:10.378Z,7.97
2023-08-17T09:40:13.931Z,8.00
2023-08-17T09:45:19.835Z,8.97
2023-08-17T09:50:26.309Z,8.13
2023-08-17T09:55:29.972Z,7.37
2023-08-17T10:00:33.931Z,8.87
2023-08-17T10:05:41.160Z,8.70
2023-08-17T10:10:46.563Z,9.50
2023-08-17T10:15:55.488Z,8.23
2023-08-17T10:21:05.998Z,9.50
2023-08-17T10:26:10.115Z,8.50
2023-08-17T10:31:13.660Z,9.43
2023-08-17T10:36:19.093Z,9.53
2023-08-17T10:41:22.627Z,9.23
2023-08-17T10:46:36.556Z,9.30
2023-08-17T10:51:45.508Z,9.67
2023-08-17T10:56:48.931Z,8.73
2023-08-17T11:01:54.186Z,9.30
2023-08-17T11:07:05.187Z,9.70
2023-08-17T11:12:08.722Z,9.87
2023-08-17T11:17:11.934Z,9.87
2023-08-17T11:22:19.184Z,11.23
2023-08-17T11:27:23.621Z,10.70
2023-08-17T11:32:27.156Z,10.53
2023-08-17T11:37:32.178Z,12.23
2023-08-17T11:42:35.657Z,9.80
2023-08-17T11:47:40.432Z,10.80
2023-08-17T11:52:46.667Z,10.70
2023-08-17T11:57:50.078Z,12.17
2023-08-17T12:02:54.432Z,11.93
2023-08-17T12:07:59.410Z,11.57
2023-08-17T12:13:02.853Z,12.10
2023-08-17T12:18:07.016Z,11.40
2023-08-17T12:23:11.836Z,13.30
2023-08-17T12:28:15.337Z,13.17
2023-08-17T12:33:18.723Z,12.20
2023-08-17T12:38:25.689Z,12.50
2023-08-17T12:43:29.260Z,12.07
2023-08-17T12:48:36.189Z,12.00
2023-08-17T12:53:41.613Z,12.40
2023-08-17T12:58:45.306Z,12.00
2023-08-17T13:03:48.819Z,10.90
2023-08-17T13:08:53.557Z,13.07
2023-08-17T13:13:57.029Z,12.40
2023-08-17T13:19:00.218Z,13.53
2023-08-17T13:24:05.631Z,10.90
2023-08-17T13:29:10.303Z,12.53
2023-08-17T13:34:13.660Z,14.30
2023-08-17T13:39:18.408Z,12.60
2023-08-17T13:44:21.800Z,14.03
2023-08-17T13:49:25.285Z,13.20
2023-08-17T13:54:30.869Z,12.63
2023-08-17T13:59:34.321Z,14.10
2023-08-17T14:04:37.562Z,13.70
2023-08-17T14:09:46.637Z,12.60
2023-08-17T14:14:57.747Z,13.90
2023-08-17T14:20:01.322Z,13.80
2023-08-17T14:25:07.315Z,12.87
2023-08-17T14:30:11.029Z,12.47
2023-08-17T14:35:14.547Z,12.30
2023-08-17T14:40:19.757Z,12.97
2023-08-17T14:45:23.498Z,12.00
2023-08-17T14:50:29.075Z,12.67
2023-08-17T14:55:34.218Z,12.20
2023-08-17T15:00:37.830Z,11.97
2023-08-17T15:05:41.933Z,16.43
2023-08-17T15:10:46.981Z,10.97
2023-08-17T15:15:50.482Z,11.00
2023-08-17T15:20:55.435Z,10.87
2023-08-17T15:26:00.286Z,9.73
2023-08-17T15:31:05.575Z,12.00
2023-08-17T15:36:09.079Z,10.80
2023-08-17T15:41:13.730Z,10.67
2023-08-17T15:46:17.173Z,10.37
2023-08-17T15:51:20.572Z,10.90
2023-08-17T15:56:25.568Z,9.80
2023-08-17T16:01:29.943Z,10.93
2023-08-17T16:06:33.269Z,9.90
2023-08-17T16:11:38.147Z,9.70
2023-08-17T16:16:41.643Z,10.30
2023-08-17T16:21:45.129Z,10.47
2023-08-17T16:26:49.833Z,8.63
2023-08-17T16:32:09.025Z,10.20
2023-08-17T16:37:12.915Z,9.23
2023-08-17T16:42:19.375Z,9.63
2023-08-17T16:47:27.253Z,10.70
2023-08-17T16:52:30.845Z,8.37
2023-08-17T16:57:35.867Z,8.67
2023-08-17T17:02:39.129Z,8.20
2023-08-17T17:07:43.251Z,9.33
2023-08-17T17:12:48.139Z,9.33
2023-08-17T17:17:51.651Z,8.83
2023-08-17T17:22:54.966Z,10.23
2023-08-17T17:27:59.977Z,10.47
2023-08-17T17:33:03.265Z,9.10
2023-08-17T17:38:06.631Z,8.80
2023-08-17T17:43:11.267Z,10.10
2023-08-17T17:48:14.750Z,9.27
2023-08-17T17:53:18.515Z,8.77
2023-08-17T17:58:23.291Z,8.43
2023-08-17T18:03:29.017Z,9.50
2023-08-17T18:08:34.054Z,9.50
2023-08-17T18:13:38.895Z,8.40
2023-08-17T18:18:42.143Z,8.70
2023-08-17T18:23:45.337Z,9.30
2023-08-17T18:28:50.117Z,9.30
2023-08-17T18:33:53.417Z,10.13
2023-08-17T18:38:56.654Z,9.83
2023-08-17T18:44:01.339Z,9.40
2023-08-17T18:49:04.799Z,9.50
2023-08-17T18:54:08.374Z,9.77
2023-08-17T18:59:12.857Z,9.43
2023-08-17T19:04:16.076Z,8.73
2023-08-17T19:09:19.310Z,9.50
2023-08-17T19:14:24.277Z,9.80
2023-08-17T19:19:27.651Z,7.37
2023-08-17T19:24:31.172Z,8.33
2023-08-17T19:29:36.020Z,8.17
2023-08-17T19:34:39.955Z,7.30
2023-08-17T19:39:43.301Z,9.47
2023-08-17T19:44:48.138Z,8.03
2023-08-17T19:49:51.575Z,8.00
2023-08-17T19:54:55.712Z,7.90
2023-08-17T20:00:00.412Z,8.10
2023-08-17T20:05:05.428Z,7.70
2023-08-17T20:10:09.705Z,7.90
2023-08-17T20:15:14.859Z,7.90
2023-08-17T20:20:20.037Z,7.90
2023-08-17T20:25:23.336Z,7.80
2023-08-17T20:30:28.224Z,20.07
2023-08-17T20:35:31.443Z,13.10
2023-08-17T20:40:34.675Z,7.90
2023-08-17T20:45:40.758Z,9.73
2023-08-17T20:50:46.322Z,8.47
2023-08-17T20:55:50.995Z,8.30
2023-08-17T21:00:56.951Z,8.77
2023-08-17T21:06:04.766Z,8.57
2023-08-17T21:11:08.867Z,8.20
2023-08-17T21:16:13.794Z,8.50
2023-08-17T21:21:17.216Z,7.60
2023-08-17T21:26:20.714Z,8.47
2023-08-17T21:31:25.537Z,8.07
2023-08-17T21:36:29.390Z,8.63
2023-08-17T21:41:32.628Z,8.73
2023-08-17T21:46:37.534Z,8.20
2023-08-17T21:51:41.104Z,7.40
2023-08-17T21:56:44.678Z,7.30
2023-08-17T22:01:49.458Z,8.20
2023-08-17T22:06:52.750Z,7.47
2023-08-17T22:11:56.090Z,7.73
2023-08-17T22:17:00.755Z,7.60
2023-08-17T22:22:05.610Z,7.70
2023-08-17T22:27:08.954Z,7.83
2023-08-17T22:32:13.889Z,7.87
2023-08-17T22:37:18.714Z,7.53
2023-08-17T22:42:22.611Z,7.30
2023-08-17T22:47:27.611Z,7.33
2023-08-17T22:52:31.241Z,7.30
2023-08-17T22:57:34.635Z,7.50
2023-08-17T23:02:39.321Z,7.00
2023-08-17T23:07:42.750Z,7.07
2023-08-17T23:12:46.126Z,7.70
2023-08-17T23:17:51.121Z,7.73
2023-08-17T23:22:54.468Z,7.90
2023-08-17T23:27:58.009Z,7.20
2023-08-17T23:33:02.849Z,7.60
2023-08-17T23:38:06.410Z,5.80
2023-08-17T23:43:09.647Z,6.50
2023-08-17T23:48:14.468Z,6.00
2023-08-17T23:53:18.134Z,5.93
2023-08-17T23:58:22.266Z,5.27
